Hauptseite
METAR-TAF:

METAR-TAF

Flughäfen :

Bückeburg, Deutschland

Heeresflugplatz Bückeburg

Breite: 52-17N, Länge: 009-05E, Höhe: 70 m

Beobachtung

Neuester Wetterbericht von vor 29 Minuten, um 23:20 UTC
Wind 1 kt aus Südwest
Temperatur 16°C
Luftfeuchtigkeit 82%
Luftdruck 1019 hPa
Sichtweite: 7000 m

METAR: ETHB 162320Z AUTO 23001KT 7000 // ////// 16/13 Q1019 ///

Zeit: 01:49 (23:49 UTC)

Prognose

Neuester Wetterbericht von vor 6 Stunden und 21 Minuten, um 17:28 UTC
Gültige Prognose vom 16 um 17 UTC bis 17 um 02 UTC
Wind 4 kt aus Nordost
Sichtweite: 1800 m
Leicht bewölkt in der Höhe von 5000 ft
Durchbrochene Bewölkung in der Höhe von 30000 ft

TAF: ETHB 161728Z 1617/1702 04004KT 9999 NSW FEW050 BKN300 CANCEL 1800

Wetterbeobachtungen und Prognosen von mehr als 4000 Flughäfen (METAR und TAF Bericht).

Die verfügbaren Stationen werden durch gelbe und rote Markierungen auf der Karte dargestellt.

Führen Sie die Maus auf sie, um den Namen der Station zu sehen.

Darauf klicken, um die Beobachtung von Wetterbeobachtungen und Prognosen zu sehen.

Um die Karte zu ändern : klicken Sie auf den grünen Tasten mit einem schwarzen Kreuz Zum Vergrößern, auf den grünen Button mit einem Gedankenstrich zu verkleinern, oder auf die grünen Pfeile für benachbarte Karten.


METAR-TAF: